Impacts TAF Board
For situational awareness. Not to be used for flight planning purposes.
IDs:

KIAH - Houston/Bush Intl, TX, US

Issued at 1219 UTC 09 Dec 2019
Updated at 1246 UTC 09 Dec 2019
Potential Impact None Slight Moderate High
Time1153Z 09/13Z 09/14Z 09/15Z 09/16Z 09/17Z 09/18Z 09/19Z 09/20Z 09/21Z 09/22Z 09/23Z 10/00Z 10/01Z>>
Type OBS PRVL
  [TEMP]  
PRVL PRVL PRVL PRVL PRVL PRVL PRVL PRVL PRVL PRVL PRVL PRVL
VIS 7 >6 >6 >6 >6 >6 >6 >6 >6 >6 >6 >6 >6 >6
CIG 8 20
  [8]  
20 19 19 19 40 40 40 40 40 40 40 40
Cover OVC BKN
  [BKN]  
BKN OVC OVC OVC BKN BKN BKN BKN BKN BKN BKN BKN
FltCat IFR MVFR
  [IFR]  
MVFR MVFR MVFR MVFR VFR VFR VFR VFR VFR VFR VFR VFR
WX -- --
  [--]  
-- -- -- -- -- -- -- -- -- -- -- --
WDir 170 200
[200]
200 220 220 220 220 220 220 220 220 220 220 220
WSpd 3 4
  [4]  
4 7 7 7 9 9 9 9 9 9 9 9
WGst -- --
  [--]  
-- -- -- -- -- -- -- -- -- -- -- --
R08/26
XWnd -3 -4 -4 -5 -5 -5 -7 -7 -7 -7 -7 -7 -7 -7
XGst -- 0 -- -- -- -- -- -- -- -- -- -- -- --
HWnd 1 -1 -1 -4 -4 -4 -6 -6 -6 -6 -6 -6 -6 -6
HGst -- 0 -- -- -- -- -- -- -- -- -- -- -- --
R09/27
XWnd -3 -4 -4 -5 -5 -5 -7 -7 -7 -7 -7 -7 -7 -7
XGst -- 0 -- -- -- -- -- -- -- -- -- -- -- --
HWnd 1 -1 -1 -4 -4 -4 -6 -6 -6 -6 -6 -6 -6 -6
HGst -- 0 -- -- -- -- -- -- -- -- -- -- -- --
R15/33
XWnd -1 -3 -3 -6 -6 -6 -8 -8 -8 -8 -8 -8 -8 -8
XGst -- 0 -- -- -- -- -- -- -- -- -- -- -- --
HWnd 3 3 3 3 3 3 3 3 3 3 3 3 3 3
HGst -- 0 -- -- -- -- -- -- -- -- -- -- -- --
Raw TAF
KIAH 091219Z 0912/1018 20004KT P6SM SCT008 BKN020
  TEMPO 0912/0914 BKN008
  FM091500 22007KT P6SM SCT008 OVC019
  FM091800 22009KT P6SM SCT020 BKN040
  FM100200 18005KT P6SM VCSH SCT020 BKN060
  FM100600 VRB03KT P6SM VCSH SCT018 BKN025
  FM101200 36013G22KT 6SM SHRA SCT010 OVC020


Raw METAR
KIAH 091153Z 17003KT 7SM BKN008 BKN020 OVC037 21/19 A2986 RMK AO2 SLP111 T02060189 10206 20189 55001
KIAH 091121Z 19003KT 8SM FEW008 SCT020 BKN037 OVC250 21/18 A2986 RMK AO2 T02060183
KIAH 091053Z 20004KT 10SM FEW015 FEW027 OVC250 20/18 A2985 RMK AO2 SLP109 T02000183
KIAH 090953Z 19005KT 10SM FEW017 SCT030 OVC250 21/18 A2985 RMK AO2 SLP109 T02060183

METAR Board
Radar Display
Forecast Discussion
For situational awareness. Not to be used for flight planning purposes.